F.r. Bigelow — WDB8153 — position and weather

sailwx.info

Track history (hours):
 
Tides and Currents Weather Stations Pressure Air Temp Water Temp Dewpoint Dewpoint Depression Visibility Wind Speed Wind Dir Waves Ship Positions

F.r. Bigelow

Owner: INGRAM BARGE COMPANY, Nashville, TN. More information available from US FCC via Universal Licensing System and Coast Guard Vessel Documentation Center.

Last reported at 2014-Nov-19 14:04 UTC. Time now 2014-Nov-23 11:02 UTC.
Position N 30°00' W 090°47'.

Length 46 m; draft 2.7 m.

Type: Tow > 200 m length. MMSI: 366953890.

Date/timePositionNaut miles runAvg speedWind from/ knotsBaromVisibWave heightAir tempDewpointWater temp
2014-Nov-19 14:04N 30°00' W 090°47'1 0.8
2014-Nov-19 13:26N 29°60' W 090°48'0 0.0
2014-Nov-19 12:17N 29°60' W 090°48'0 0.0
2014-Nov-19 11:24N 29°60' W 090°48'0 0.3
2014-Nov-19 10:23N 29°60' W 090°48'3 3.2
2014-Nov-19 09:20N 30°02' W 090°50'2 2.1
2014-Nov-19 08:26N 30°04' W 090°51'0 0.0
2014-Nov-19 07:33N 30°04' W 090°51'0 0.0
2014-Nov-19 06:32N 30°04' W 090°51'0 0.0
2014-Nov-19 04:27N 30°04' W 090°51'0 0.0
2014-Nov-19 03:30N 30°04' W 090°51'  
2014-Nov-15 07:20N 29°57' W 090°03'  
2014-Nov-11 18:25N 29°57' W 090°09'4 4.3
2014-Nov-11 17:30N 29°55' W 090°05'2 2.5
2014-Nov-11 16:31N 29°56' W 090°03'0 0.1
2014-Nov-11 15:27N 29°57' W 090°03'7 1.4
2014-Nov-11 10:32N 29°51' W 089°59'11 2.2
2014-Nov-11 05:30N 29°40' W 089°58'37 2.3
2014-Nov-10 13:19N 30°03' W 090°31'0 0.0
2014-Nov-10 10:30N 30°03' W 090°31'0 0.0
2014-Nov-10 09:29N 30°03' W 090°31'4 2.9
2014-Nov-10 08:14N 30°03' W 090°35'4 5.1
2014-Nov-10 07:22N 30°03' W 090°40'  
Track history (hours):
 
Tides and Currents Weather Stations Pressure Air Temp Water Temp Dewpoint Dewpoint Depression Visibility Wind Speed Wind Dir Waves Ship Positions

F.r. Bigelow

Owner: INGRAM BARGE COMPANY, Nashville, TN. More information available from US FCC via Universal Licensing System and Coast Guard Vessel Documentation Center.

Last reported at 2014-Nov-19 14:04 UTC. Time now 2014-Nov-23 11:02 UTC.
Position N 30°00' W 090°47'.

Length 46 m; draft 2.7 m.

Type: Tow > 200 m length. MMSI: 366953890.

Date/timePositionNaut miles runAvg speedWind from/ knotsBaromVisibWave heightAir tempDewpointWater temp
2014-Nov-19 14:04N 30°00' W 090°47'1 0.8
2014-Nov-19 13:26N 29°60' W 090°48'0 0.0
2014-Nov-19 12:17N 29°60' W 090°48'0 0.0
2014-Nov-19 11:24N 29°60' W 090°48'0 0.3
2014-Nov-19 10:23N 29°60' W 090°48'3 3.2
2014-Nov-19 09:20N 30°02' W 090°50'2 2.1
2014-Nov-19 08:26N 30°04' W 090°51'0 0.0
2014-Nov-19 07:33N 30°04' W 090°51'0 0.0
2014-Nov-19 06:32N 30°04' W 090°51'0 0.0
2014-Nov-19 04:27N 30°04' W 090°51'0 0.0
2014-Nov-19 03:30N 30°04' W 090°51'  
2014-Nov-15 07:20N 29°57' W 090°03'  
2014-Nov-11 18:25N 29°57' W 090°09'4 4.3
2014-Nov-11 17:30N 29°55' W 090°05'2 2.5
2014-Nov-11 16:31N 29°56' W 090°03'0 0.1
2014-Nov-11 15:27N 29°57' W 090°03'7 1.4
2014-Nov-11 10:32N 29°51' W 089°59'11 2.2
2014-Nov-11 05:30N 29°40' W 089°58'37 2.3
2014-Nov-10 13:19N 30°03' W 090°31'0 0.0
2014-Nov-10 10:30N 30°03' W 090°31'0 0.0
2014-Nov-10 09:29N 30°03' W 090°31'4 2.9
2014-Nov-10 08:14N 30°03' W 090°35'4 5.1
2014-Nov-10 07:22N 30°03' W 090°40'  

Dump ship's entire track history